createdAt,value
2023-03-10T00:00:01.871Z,93870.03
2023-03-10T00:03:05.107Z,93870.38
2023-03-10T00:06:08.280Z,93864.31
2023-03-10T00:09:10.643Z,93852.84
2023-03-10T00:12:12.754Z,93858.19
2023-03-10T00:15:14.764Z,93843.66
2023-03-10T00:18:19.142Z,93841.34
2023-03-10T00:21:23.693Z,93836.75
2023-03-10T00:24:25.826Z,93834.81
2023-03-10T00:27:27.624Z,93828.28
2023-03-10T00:30:30.672Z,93827.09
2023-03-10T00:33:38.590Z,93822.09
2023-03-10T00:36:41.544Z,93824.75
2023-03-10T00:39:43.348Z,93825.13
2023-03-10T00:42:48.124Z,93819.41
2023-03-10T00:45:49.976Z,93811.09
2023-03-10T00:48:53.784Z,93802.00
2023-03-10T00:51:55.563Z,93794.69
2023-03-10T00:54:57.354Z,93775.25
2023-03-10T00:58:01.122Z,93779.06
2023-03-10T01:01:11.048Z,93763.38
2023-03-10T01:04:16.288Z,93763.75
2023-03-10T01:07:18.254Z,93749.25
2023-03-10T01:10:20.428Z,93743.09
2023-03-10T01:13:22.288Z,93727.44
2023-03-10T01:16:26.904Z,93721.38
2023-03-10T01:19:31.043Z,93700.06
2023-03-10T01:22:35.320Z,93705.81
2023-03-10T01:25:37.296Z,93697.41
2023-03-10T01:28:39.343Z,93703.50
2023-03-10T01:31:41.154Z,93698.50
2023-03-10T01:34:44.473Z,93700.81
2023-03-10T01:37:46.400Z,93695.47
2023-03-10T01:40:51.340Z,93687.47
2023-03-10T01:43:54.239Z,93682.16
2023-03-10T01:46:56.587Z,93686.34
2023-03-10T01:50:00.759Z,93680.63
2023-03-10T01:53:03.358Z,93674.91
2023-03-10T01:56:06.865Z,93669.94
2023-03-10T01:59:10.085Z,93659.63
2023-03-10T02:02:14.436Z,93650.50
2023-03-10T02:05:18.182Z,93653.91
2023-03-10T02:08:23.433Z,93640.56
2023-03-10T02:11:25.628Z,93641.66
2023-03-10T02:14:27.798Z,93630.22
2023-03-10T02:17:32.403Z,93626.03
2023-03-10T02:20:40.880Z,93630.22
2023-03-10T02:24:00.414Z,93626.44
2023-03-10T02:27:11.079Z,93619.16
2023-03-10T02:30:16.451Z,93614.16
2023-03-10T02:33:22.050Z,93621.44
2023-03-10T02:36:24.671Z,93612.63
2023-03-10T02:39:26.940Z,93604.63
2023-03-10T02:42:35.156Z,93584.41
2023-03-10T02:45:39.414Z,93584.03
2023-03-10T02:48:42.191Z,93578.66
2023-03-10T02:51:46.060Z,93575.22
2023-03-10T02:54:51.317Z,93558.09
2023-03-10T02:57:54.432Z,93557.28
2023-03-10T03:00:56.504Z,93555.00
2023-03-10T03:03:58.915Z,93549.75
2023-03-10T03:07:00.677Z,93553.56
2023-03-10T03:10:02.596Z,93547.88
2023-03-10T03:13:06.503Z,93546.72
2023-03-10T03:16:09.678Z,93541.00
2023-03-10T03:19:11.587Z,93538.28
2023-03-10T03:22:13.603Z,93533.75
2023-03-10T03:25:17.187Z,93530.34
2023-03-10T03:28:20.338Z,93523.09
2023-03-10T03:31:24.248Z,93520.38
2023-03-10T03:34:26.105Z,93514.22
2023-03-10T03:37:27.940Z,93516.09
2023-03-10T03:40:32.125Z,93508.16
2023-03-10T03:43:35.370Z,93500.59
2023-03-10T03:46:37.241Z,93499.47
2023-03-10T03:49:39.504Z,93498.34
2023-03-10T03:52:42.292Z,93500.22
2023-03-10T03:55:44.118Z,93488.38
2023-03-10T03:58:47.259Z,93486.44
2023-03-10T04:01:49.087Z,93481.50
2023-03-10T04:04:52.624Z,93470.88
2023-03-10T04:07:54.479Z,93476.59
2023-03-10T04:10:56.262Z,93466.59
2023-03-10T04:14:00.779Z,93466.28
2023-03-10T04:17:03.430Z,93463.63
2023-03-10T04:20:08.539Z,93467.44
2023-03-10T04:23:10.501Z,93471.25
2023-03-10T04:26:12.342Z,93470.09
2023-03-10T04:29:15.760Z,93468.97
2023-03-10T04:32:17.645Z,93481.16
2023-03-10T04:35:19.589Z,93481.56
2023-03-10T04:38:21.465Z,93472.44
2023-03-10T04:41:23.242Z,93462.50
2023-03-10T04:44:31.164Z,93460.59
2023-03-10T04:47:33.404Z,93447.28
2023-03-10T04:50:35.183Z,93445.38
2023-03-10T04:53:37.429Z,93449.56
2023-03-10T04:56:39.250Z,93454.84
2023-03-10T04:59:42.412Z,93442.91
2023-03-10T05:02:44.216Z,93443.69
2023-03-10T05:05:45.998Z,93437.19
2023-03-10T05:08:47.803Z,93437.97
2023-03-10T05:11:49.575Z,93438.72
2023-03-10T05:14:52.738Z,93440.19
2023-03-10T05:17:54.545Z,93439.44
2023-03-10T05:20:57.915Z,93440.25
2023-03-10T05:23:59.694Z,93430.81
2023-03-10T05:27:01.590Z,93441.09
2023-03-10T05:30:06.655Z,93447.16
2023-03-10T05:33:08.522Z,93444.81
2023-03-10T05:36:12.191Z,93438.31
2023-03-10T05:39:14.029Z,93434.50
2023-03-10T05:42:15.821Z,93427.28
2023-03-10T05:45:19.058Z,93435.34
2023-03-10T05:48:20.842Z,93429.22
2023-03-10T05:51:23.174Z,93412.44
2023-03-10T05:54:24.978Z,93409.03
2023-03-10T05:57:27.174Z,93427.38
2023-03-10T06:00:30.650Z,93436.53
2023-03-10T06:03:32.560Z,93438.41
2023-03-10T06:06:34.606Z,93441.88
2023-03-10T06:09:36.418Z,93439.25
2023-03-10T06:12:38.290Z,93431.25
2023-03-10T06:15:41.440Z,93439.66
2023-03-10T06:18:43.506Z,93440.41
2023-03-10T06:21:45.447Z,93444.22
2023-03-10T06:24:47.299Z,93435.47
2023-03-10T06:27:49.103Z,93433.94
2023-03-10T06:30:55.898Z,93444.22
2023-03-10T06:33:58.554Z,93440.78
2023-03-10T06:37:00.320Z,93440.75
2023-03-10T06:40:02.176Z,93447.63
2023-03-10T06:43:04.013Z,93453.72
2023-03-10T06:46:10.462Z,93438.44
2023-03-10T06:49:12.369Z,93441.06
2023-03-10T06:52:14.223Z,93440.63
2023-03-10T06:55:16.118Z,93458.50
2023-03-10T06:58:17.924Z,93460.00
2023-03-10T07:01:24.254Z,93472.53
2023-03-10T07:04:26.147Z,93476.66
2023-03-10T07:07:27.971Z,93494.09
2023-03-10T07:10:29.830Z,93494.84
2023-03-10T07:13:31.662Z,93509.38
2023-03-10T07:16:34.854Z,93529.16
2023-03-10T07:19:37.359Z,93531.47
2023-03-10T07:22:39.145Z,93529.59
2023-03-10T07:25:41.055Z,93546.03
2023-03-10T07:28:42.882Z,93542.97
2023-03-10T07:31:46.048Z,93541.78
2023-03-10T07:34:47.834Z,93538.59
2023-03-10T07:37:49.628Z,93537.84
2023-03-10T07:40:51.445Z,93541.69
2023-03-10T07:43:54.486Z,93531.31
2023-03-10T07:46:57.673Z,93530.84
2023-03-10T07:49:59.449Z,93530.72
2023-03-10T07:53:01.335Z,93533.81
2023-03-10T07:56:05.142Z,93527.75
2023-03-10T07:59:06.954Z,93532.84
2023-03-10T08:02:12.713Z,93522.22
2023-03-10T08:05:14.540Z,93514.41
2023-03-10T08:08:16.476Z,93509.59
2023-03-10T08:11:19.246Z,93510.63
2023-03-10T08:14:21.194Z,93511.38
2023-03-10T08:17:24.511Z,93505.41
2023-03-10T08:20:26.372Z,93504.22
2023-03-10T08:23:28.218Z,93507.78
2023-03-10T08:26:30.038Z,93503.88
2023-03-10T08:29:32.147Z,93508.09
2023-03-10T08:32:35.343Z,93503.13
2023-03-10T08:35:38.283Z,93508.09
2023-03-10T08:38:41.124Z,93502.13
2023-03-10T08:41:45.484Z,93507.22
2023-03-10T08:44:47.234Z,93508.75
2023-03-10T08:47:50.410Z,93508.19
2023-03-10T08:50:52.500Z,93507.59
2023-03-10T08:53:54.743Z,93509.59
2023-03-10T08:56:56.523Z,93505.78
2023-03-10T08:59:58.345Z,93505.75
2023-03-10T09:03:01.590Z,93509.22
2023-03-10T09:06:03.693Z,93496.25
2023-03-10T09:09:07.556Z,93497.13
2023-03-10T09:12:09.754Z,93484.41
2023-03-10T09:15:11.817Z,93456.34
2023-03-10T09:18:16.221Z,93464.81
2023-03-10T09:21:19.476Z,93492.88
2023-03-10T09:24:21.349Z,93484.81
2023-03-10T09:27:23.118Z,93463.28
2023-03-10T09:30:25.814Z,93449.31
2023-03-10T09:33:32.011Z,93435.50
2023-03-10T09:36:34.623Z,93442.53
2023-03-10T09:39:36.524Z,93446.91
2023-03-10T09:42:40.803Z,93447.38
2023-03-10T09:45:53.275Z,93436.31
2023-03-10T09:49:04.983Z,93430.56
2023-03-10T09:52:21.240Z,93438.63
2023-03-10T09:55:27.613Z,93438.19
2023-03-10T09:58:33.673Z,93435.41
2023-03-10T10:01:35.920Z,93433.81
2023-03-10T10:04:41.972Z,93437.97
2023-03-10T10:07:48.323Z,93434.81
2023-03-10T10:10:54.321Z,93424.34
2023-03-10T10:14:22.202Z,93428.09
2023-03-10T10:17:50.848Z,93424.09
2023-03-10T10:21:00.664Z,93414.81
2023-03-10T10:24:02.449Z,93417.31
2023-03-10T10:27:04.249Z,93415.72
2023-03-10T10:30:27.169Z,93396.41
2023-03-10T10:33:29.255Z,93398.13
2023-03-10T10:36:34.471Z,93382.97
2023-03-10T10:39:42.987Z,93384.41
2023-03-10T10:42:52.570Z,93382.00
2023-03-10T10:45:55.924Z,93386.16
2023-03-10T10:49:04.640Z,93388.78
2023-03-10T10:52:20.851Z,93383.75
2023-03-10T10:55:27.091Z,93386.16
2023-03-10T10:58:31.824Z,93386.16
2023-03-10T11:01:49.572Z,93388.91
2023-03-10T11:04:51.342Z,93382.97
2023-03-10T11:07:54.460Z,93366.34
2023-03-10T11:11:01.277Z,93368.94
2023-03-10T11:14:29.325Z,93365.72
2023-03-10T11:17:37.801Z,93356.69
2023-03-10T11:20:51.048Z,93353.16
2023-03-10T11:24:03.943Z,93368.06
2023-03-10T11:27:12.997Z,93357.16
2023-03-10T11:30:17.841Z,93351.25
2023-03-10T11:33:28.022Z,93355.25
2023-03-10T11:36:49.601Z,93351.38
2023-03-10T11:40:13.581Z,93343.53
2023-03-10T11:43:27.909Z,93349.06
2023-03-10T11:46:35.492Z,93339.16
2023-03-10T11:49:39.037Z,93336.78
2023-03-10T11:52:42.191Z,93333.94
2023-03-10T11:55:45.825Z,93336.66
2023-03-10T11:58:51.913Z,93335.25
2023-03-10T12:01:59.187Z,93333.28
2023-03-10T12:05:05.445Z,93335.88
2023-03-10T12:08:07.631Z,93331.53
2023-03-10T12:11:16.830Z,93321.50
2023-03-10T12:14:19.403Z,93327.22
2023-03-10T12:17:21.390Z,93315.53
2023-03-10T12:20:26.435Z,93318.16
2023-03-10T12:23:40.154Z,93307.22
2023-03-10T12:27:01.933Z,93305.25
2023-03-10T12:30:49.660Z,93307.28
2023-03-10T12:34:08.025Z,93313.88
2023-03-10T12:37:11.494Z,93317.91
2023-03-10T12:40:47.466Z,93314.31
2023-03-10T12:43:58.612Z,93314.63
2023-03-10T12:47:11.536Z,93319.28
2023-03-10T12:50:26.932Z,93326.75
2023-03-10T12:53:32.817Z,93336.28
2023-03-10T12:56:42.100Z,93347.09
2023-03-10T12:59:49.183Z,93363.34
2023-03-10T13:02:53.753Z,93457.53
2023-03-10T13:06:03.683Z,93496.44
2023-03-10T13:09:17.815Z,93487.94
2023-03-10T13:12:24.173Z,93490.53
2023-03-10T13:15:27.823Z,93518.59
2023-03-10T13:18:30.575Z,93483.81
2023-03-10T13:21:37.017Z,93465.03
2023-03-10T13:24:38.787Z,93461.09
2023-03-10T13:27:40.642Z,93457.06
2023-03-10T13:30:42.467Z,93449.31
2023-03-10T13:33:52.860Z,93424.19
2023-03-10T13:37:04.629Z,93414.41
2023-03-10T13:40:08.651Z,93403.56
2023-03-10T13:43:27.131Z,93400.81
2023-03-10T13:46:31.717Z,93404.09
2023-03-10T13:49:36.015Z,93407.53
2023-03-10T13:52:52.520Z,93397.81
2023-03-10T13:55:54.361Z,93391.19
2023-03-10T13:58:57.963Z,93380.69
2023-03-10T14:02:01.328Z,93380.50
2023-03-10T14:05:04.364Z,93375.38
2023-03-10T14:08:17.100Z,93373.34
2023-03-10T14:11:33.440Z,93376.38
2023-03-10T14:14:36.820Z,93383.50
2023-03-10T14:17:38.628Z,93389.47
2023-03-10T14:20:41.790Z,93390.66
2023-03-10T14:23:45.094Z,93390.66
2023-03-10T14:26:47.403Z,93394.75
2023-03-10T14:29:50.900Z,93399.78
2023-03-10T14:32:53.438Z,93410.56
2023-03-10T14:35:55.511Z,93400.94
2023-03-10T14:38:58.997Z,93399.25
2023-03-10T14:42:01.947Z,93371.44
2023-03-10T14:45:07.438Z,93371.31
2023-03-10T14:48:13.440Z,93369.38
2023-03-10T14:51:29.044Z,93364.63
2023-03-10T14:54:37.830Z,93362.47
2023-03-10T14:57:41.294Z,93365.50
2023-03-10T15:00:43.771Z,93363.00
2023-03-10T15:03:45.939Z,93367.03
2023-03-10T15:06:48.193Z,93369.41
2023-03-10T15:10:01.911Z,93365.28
2023-03-10T15:13:12.231Z,93357.31
2023-03-10T15:16:15.124Z,93363.78
2023-03-10T15:19:20.803Z,93365.94
2023-03-10T15:22:24.007Z,93360.97
2023-03-10T15:25:27.461Z,93353.28
2023-03-10T15:28:29.316Z,93370.13
2023-03-10T15:31:31.356Z,93374.13
2023-03-10T15:34:33.146Z,93371.88
2023-03-10T15:37:34.947Z,93358.16
2023-03-10T15:40:38.328Z,93368.84
2023-03-10T15:43:40.279Z,93385.16
2023-03-10T15:46:42.272Z,93379.63
2023-03-10T15:49:44.098Z,93388.81
2023-03-10T15:52:46.992Z,93391.28
2023-03-10T15:55:50.347Z,93395.94
2023-03-10T15:58:52.180Z,93408.38
2023-03-10T16:01:54.142Z,93401.66
2023-03-10T16:04:55.958Z,93396.44
2023-03-10T16:07:57.790Z,93429.59
2023-03-10T16:11:00.942Z,93458.06
2023-03-10T16:14:03.295Z,93447.13
2023-03-10T16:17:05.228Z,93440.50
2023-03-10T16:20:08.898Z,93431.31
2023-03-10T16:23:10.668Z,93421.09
2023-03-10T16:26:16.499Z,93428.44
2023-03-10T16:29:18.322Z,93424.50
2023-03-10T16:32:20.666Z,93418.44
2023-03-10T16:35:22.537Z,93431.09
2023-03-10T16:38:24.671Z,93442.59
2023-03-10T16:41:29.724Z,93434.72
2023-03-10T16:44:31.909Z,93441.78
2023-03-10T16:47:34.182Z,93453.75
2023-03-10T16:50:36.733Z,93442.09
2023-03-10T16:53:38.960Z,93475.22
2023-03-10T16:56:45.619Z,93480.34
2023-03-10T16:59:48.349Z,93515.44
2023-03-10T17:02:51.111Z,93531.28
2023-03-10T17:05:53.229Z,93523.25
2023-03-10T17:08:56.082Z,93550.81
2023-03-10T17:11:59.716Z,93573.28
2023-03-10T17:15:02.012Z,93567.00
2023-03-10T17:18:05.069Z,93536.84
2023-03-10T17:21:12.768Z,93539.28
2023-03-10T17:24:16.159Z,93553.06
2023-03-10T17:27:19.540Z,93555.53
2023-03-10T17:30:21.518Z,93610.09
2023-03-10T17:33:24.432Z,93565.38
2023-03-10T17:36:27.626Z,93553.47
2023-03-10T17:39:29.879Z,93558.56
2023-03-10T17:42:34.042Z,93576.59
2023-03-10T17:45:36.179Z,93555.63
2023-03-10T17:48:38.935Z,93591.16
2023-03-10T17:51:42.109Z,93567.75
2023-03-10T17:54:44.618Z,93565.97
2023-03-10T17:57:48.429Z,93560.19
2023-03-10T18:00:50.911Z,93547.81
2023-03-10T18:03:52.993Z,93547.56
2023-03-10T18:06:55.485Z,93537.50
2023-03-10T18:09:58.304Z,93534.91
2023-03-10T18:13:01.993Z,93518.75
2023-03-10T18:16:04.643Z,93522.84
2023-03-10T18:19:10.304Z,93515.22
2023-03-10T18:22:13.180Z,93527.13
2023-03-10T18:25:15.272Z,93540.19
2023-03-10T18:28:20.568Z,93557.50
2023-03-10T18:31:25.107Z,93536.84
2023-03-10T18:34:27.606Z,93544.19
2023-03-10T18:37:30.666Z,93572.63
2023-03-10T18:40:34.569Z,93593.22
2023-03-10T18:43:41.887Z,93577.78
2023-03-10T18:46:44.978Z,93571.25
2023-03-10T18:49:47.854Z,93603.91
2023-03-10T18:52:50.426Z,93603.94
2023-03-10T18:55:54.147Z,93594.34
2023-03-10T18:58:58.451Z,93574.56
2023-03-10T19:02:01.461Z,93593.00
2023-03-10T19:05:05.036Z,93587.69
2023-03-10T19:08:08.121Z,93620.56
2023-03-10T19:11:11.049Z,93604.84
2023-03-10T19:14:16.004Z,93668.94
2023-03-10T19:17:18.876Z,93594.94
2023-03-10T19:20:22.006Z,93594.94
2023-03-10T19:23:24.507Z,93616.16
2023-03-10T19:26:30.667Z,93604.19
2023-03-10T19:29:49.442Z,93603.97
2023-03-10T19:32:52.671Z,93595.63
2023-03-10T19:36:01.222Z,93598.25
2023-03-10T19:39:04.076Z,93593.69
2023-03-10T19:42:07.297Z,93608.53
2023-03-10T19:45:13.785Z,93592.47
2023-03-10T19:48:17.279Z,93590.59
2023-03-10T19:51:22.936Z,93589.94
2023-03-10T19:54:25.230Z,93601.41
2023-03-10T19:57:28.174Z,93596.44
2023-03-10T20:00:31.829Z,93598.03
2023-03-10T20:03:34.965Z,93610.25
2023-03-10T20:06:37.968Z,93596.59
2023-03-10T20:09:40.701Z,93576.63
2023-03-10T20:12:43.978Z,93573.25
2023-03-10T20:15:47.828Z,93587.81
2023-03-10T20:18:51.302Z,93592.69
2023-03-10T20:21:54.001Z,93583.19
2023-03-10T20:24:57.170Z,93587.41
2023-03-10T20:28:00.092Z,93627.63
2023-03-10T20:31:06.174Z,93624.59
2023-03-10T20:34:16.840Z,93641.00
2023-03-10T20:37:19.471Z,93632.56
2023-03-10T20:40:24.284Z,93626.06
2023-03-10T20:43:27.217Z,93617.31
2023-03-10T20:46:31.693Z,93621.22
2023-03-10T20:49:34.785Z,93640.03
2023-03-10T20:52:38.646Z,93643.81
2023-03-10T20:55:42.413Z,93623.94
2023-03-10T20:58:45.151Z,93623.94
2023-03-10T21:01:49.440Z,93628.94
2023-03-10T21:04:52.877Z,93622.00
2023-03-10T21:07:55.841Z,93633.47
2023-03-10T21:10:59.796Z,93616.63
2023-03-10T21:14:02.406Z,93598.66
2023-03-10T21:17:06.972Z,93629.47
2023-03-10T21:20:10.873Z,93608.06
2023-03-10T21:23:12.909Z,93627.19
2023-03-10T21:26:16.682Z,93629.88
2023-03-10T21:29:18.939Z,93656.38
2023-03-10T21:32:23.588Z,93635.66
2023-03-10T21:35:28.807Z,93616.84
2023-03-10T21:38:30.746Z,93619.47
2023-03-10T21:41:33.626Z,93621.81
2023-03-10T21:44:35.880Z,93636.75
2023-03-10T21:47:39.098Z,93646.66
2023-03-10T21:50:41.171Z,93647.81
2023-03-10T21:53:43.626Z,93631.41
2023-03-10T21:56:45.474Z,93646.72
2023-03-10T21:59:47.351Z,93636.06
2023-03-10T22:02:52.112Z,93612.34
2023-03-10T22:05:54.090Z,93622.97
2023-03-10T22:08:55.907Z,93636.44
2023-03-10T22:11:57.721Z,93657.13
2023-03-10T22:14:59.860Z,93631.81
2023-03-10T22:18:03.243Z,93652.88
2023-03-10T22:21:05.492Z,93633.78
2023-03-10T22:24:07.340Z,93624.56
2023-03-10T22:27:09.168Z,93616.09
2023-03-10T22:30:11.943Z,93606.97
2023-03-10T22:33:15.111Z,93638.38
2023-03-10T22:36:16.865Z,93619.19
2023-03-10T22:39:18.726Z,93636.84
2023-03-10T22:42:20.511Z,93646.47
2023-03-10T22:45:24.277Z,93643.88
2023-03-10T22:48:27.460Z,93656.94
2023-03-10T22:51:29.226Z,93646.25
2023-03-10T22:54:31.022Z,93681.81
2023-03-10T22:57:32.775Z,93728.09
2023-03-10T23:00:35.026Z,93713.66
2023-03-10T23:03:38.253Z,93731.69
2023-03-10T23:06:40.055Z,93720.66
2023-03-10T23:09:41.830Z,93746.25
2023-03-10T23:12:43.735Z,93739.03
2023-03-10T23:15:45.818Z,93760.44
2023-03-10T23:18:49.054Z,93750.09
2023-03-10T23:21:50.893Z,93742.09
2023-03-10T23:24:52.893Z,93737.88
2023-03-10T23:27:55.220Z,93740.94
2023-03-10T23:30:57.072Z,93729.50
2023-03-10T23:34:00.271Z,93757.72
2023-03-10T23:37:02.059Z,93769.94
2023-03-10T23:40:05.119Z,93760.03
2023-03-10T23:43:07.492Z,93745.16
2023-03-10T23:46:09.372Z,93769.94
2023-03-10T23:49:12.561Z,93802.00
2023-03-10T23:52:14.343Z,93813.84
2023-03-10T23:55:20.023Z,93813.84
2023-03-10T23:58:21.769Z,93816.53
